Time;durP1;ratioP1;P1;durP2;ratioP2;P2;SDS_P1;SDS_P2;PMS_P1;PMS_P2;Temp;Humidity;BMP_temperature;BMP_pressure;BME280_temperature;BME280_humidity;BME280_pressure;Samples;Min_cycle;Max_cycle;Signal;HPM_P1;HPM_P2
2021/09/12 00:00:15;;;;;;;10.93;6.70;;;14.70;99.90;;;;;;5028953;28;20176;-60
2021/09/12 00:02:41;;;;;;;10.37;6.80;;;14.70;99.90;;;;;;5031005;28;20550;-59
2021/09/12 00:05:07;;;;;;;12.03;6.90;;;14.70;99.90;;;;;;5023966;28;20455;-59
2021/09/12 00:07:33;;;;;;;9.27;6.53;;;14.70;99.90;;;;;;5022590;28;20180;-59
2021/09/12 00:09:58;;;;;;;8.03;6.13;;;14.70;99.90;;;;;;5028344;28;20454;-59
2021/09/12 00:12:24;;;;;;;9.80;7.03;;;14.80;99.90;;;;;;5027808;28;20184;-62
2021/09/12 00:14:50;;;;;;;9.37;6.57;;;14.80;99.90;;;;;;5026308;28;20196;-59
2021/09/12 00:17:16;;;;;;;18.23;7.00;;;14.80;99.90;;;;;;5027713;28;20196;-59
2021/09/12 00:19:41;;;;;;;14.70;7.63;;;14.80;99.90;;;;;;5028115;28;20601;-59
2021/09/12 00:22:07;;;;;;;26.77;8.37;;;14.80;99.90;;;;;;5030755;28;20182;-59
2021/09/12 00:24:33;;;;;;;13.67;7.13;;;14.80;99.90;;;;;;5026827;28;20184;-60
2021/09/12 00:26:58;;;;;;;18.27;8.13;;;14.80;99.90;;;;;;5026981;28;20274;-58
2021/09/12 00:29:24;;;;;;;21.73;8.57;;;14.70;99.90;;;;;;5023725;28;20228;-60
2021/09/12 00:31:50;;;;;;;15.93;7.50;;;14.70;99.90;;;;;;5030408;28;20555;-60
2021/09/12 00:34:16;;;;;;;13.90;7.73;;;14.70;99.90;;;;;;5026342;28;20273;-60
2021/09/12 00:36:42;;;;;;;11.67;7.67;;;14.70;99.90;;;;;;5025390;28;20438;-60
2021/09/12 00:39:07;;;;;;;22.53;9.23;;;14.70;99.90;;;;;;5028925;28;20501;-60
2021/09/12 00:41:41;;;;;;;21.67;8.70;;;14.70;99.90;;;;;;5026838;28;20183;-59
2021/09/12 00:44:10;;;;;;;26.13;9.30;;;14.70;99.90;;;;;;5024878;28;20172;-60
2021/09/12 00:46:45;;;;;;;22.20;9.47;;;14.70;99.90;;;;;;5041010;28;20454;-59
2021/09/12 00:49:11;;;;;;;52.63;9.03;;;14.60;99.90;;;;;;5043133;28;20469;-60
2021/09/12 00:51:37;;;;;;;22.40;8.50;;;14.60;99.90;;;;;;5041849;28;20495;-60
2021/09/12 00:54:08;;;;;;;36.97;9.00;;;14.60;99.90;;;;;;5025980;28;20438;-60
2021/09/12 00:56:38;;;;;;;18.87;7.57;;;14.60;99.90;;;;;;5022722;28;20199;-60
2021/09/12 00:59:09;;;;;;;23.13;7.97;;;14.50;99.90;;;;;;5028647;28;20487;-59
2021/09/12 01:01:35;;;;;;;21.73;8.07;;;14.50;99.90;;;;;;5009657;28;20549;-60
2021/09/12 01:04:02;;;;;;;15.00;8.20;;;14.50;99.90;;;;;;5014403;28;20862;-60
2021/09/12 01:06:30;;;;;;;12.10;7.67;;;14.50;99.90;;;;;;5021166;28;20466;-59
2021/09/12 01:08:56;;;;;;;24.77;9.03;;;14.50;99.90;;;;;;5028063;28;20549;-60
2021/09/12 01:11:21;;;;;;;16.30;8.70;;;14.50;99.90;;;;;;5005862;28;20865;-59
2021/09/12 01:13:47;;;;;;;15.70;8.13;;;14.50;99.90;;;;;;5027274;28;20168;-60
2021/09/12 01:16:16;;;;;;;38.47;10.17;;;14.50;99.90;;;;;;5026388;28;20245;-60
2021/09/12 01:18:46;;;;;;;13.20;8.00;;;14.50;99.90;;;;;;5027874;28;20167;-60
2021/09/12 01:21:18;;;;;;;13.00;8.40;;;14.50;99.90;;;;;;5025712;28;20971;-60
2021/09/12 01:23:44;;;;;;;14.20;8.00;;;14.50;99.90;;;;;;5026912;28;20860;-60
2021/09/12 01:26:10;;;;;;;25.60;8.83;;;14.50;99.90;;;;;;5025959;28;20453;-60
2021/09/12 01:28:40;;;;;;;12.00;6.50;;;14.50;99.90;;;;;;5024982;28;20179;-60
2021/09/12 01:31:07;;;;;;;15.00;7.60;;;14.40;99.90;;;;;;5028344;28;20422;-60
2021/09/12 01:33:32;;;;;;;10.30;6.70;;;14.40;99.90;;;;;;5024385;28;20473;-59
2021/09/12 01:35:58;;;;;;;8.83;6.40;;;14.40;99.90;;;;;;5028814;28;20454;-59
2021/09/12 01:38:24;;;;;;;13.53;6.73;;;14.40;99.90;;;;;;5009326;28;20559;-60
2021/09/12 01:40:49;;;;;;;9.00;7.13;;;14.40;99.90;;;;;;5028908;28;20202;-58
2021/09/12 01:43:19;;;;;;;13.83;6.97;;;14.40;99.90;;;;;;5025350;28;20195;-60
2021/09/12 01:45:46;;;;;;;19.80;7.30;;;14.40;99.90;;;;;;5025208;28;20199;-60
2021/09/12 01:48:11;;;;;;;14.53;8.20;;;14.40;99.90;;;;;;5022305;28;20949;-60
2021/09/12 01:50:37;;;;;;;14.03;8.17;;;14.30;99.90;;;;;;5027754;28;20466;-60
2021/09/12 01:53:04;;;;;;;13.73;9.40;;;14.30;99.90;;;;;;5025421;28;20326;-60
2021/09/12 01:55:29;;;;;;;22.97;11.63;;;14.30;99.90;;;;;;5022911;28;20207;-60
2021/09/12 01:57:55;;;;;;;19.13;10.33;;;14.30;99.90;;;;;;5024977;28;20944;-60
2021/09/12 02:00:21;;;;;;;14.90;7.93;;;14.30;99.90;;;;;;5028029;28;20191;-60
2021/09/12 02:02:46;;;;;;;19.43;9.63;;;14.30;99.90;;;;;;5022418;28;20608;-58
2021/09/12 02:05:12;;;;;;;16.87;8.23;;;14.30;99.90;;;;;;5027530;28;20203;-59
2021/09/12 02:07:38;;;;;;;19.43;6.70;;;14.30;99.90;;;;;;5027272;28;20583;-59
2021/09/12 02:10:03;;;;;;;28.67;6.60;;;14.30;99.90;;;;;;5022266;28;20196;-60
2021/09/12 02:12:29;;;;;;;11.23;6.10;;;14.30;99.90;;;;;;5023140;28;20184;-60
2021/09/12 02:14:55;;;;;;;12.57;5.70;;;14.20;99.90;;;;;;5034311;28;20230;-60
2021/09/12 02:17:22;;;;;;;19.37;6.57;;;14.20;99.90;;;;;;5031326;28;20175;-59
2021/09/12 02:19:48;;;;;;;12.07;6.67;;;14.20;99.90;;;;;;5026395;28;20677;-60
2021/09/12 02:22:13;;;;;;;15.63;6.90;;;14.20;99.90;;;;;;5024087;28;20432;-59
2021/09/12 02:24:39;;;;;;;15.83;6.90;;;14.10;99.90;;;;;;5028008;28;20207;-59
2021/09/12 02:27:05;;;;;;;22.90;7.13;;;14.10;99.90;;;;;;5041317;22;20238;-59
2021/09/12 02:29:30;;;;;;;12.17;7.23;;;14.10;99.90;;;;;;5025830;28;20213;-59
2021/09/12 02:31:56;;;;;;;25.20;8.97;;;14.10;99.90;;;;;;5024960;28;20192;-58
2021/09/12 02:34:22;;;;;;;16.77;10.37;;;14.10;99.90;;;;;;5027932;28;20198;-58
2021/09/12 02:36:47;;;;;;;18.67;10.00;;;14.00;99.90;;;;;;5026947;28;20219;-58
2021/09/12 02:39:13;;;;;;;25.10;11.00;;;14.00;99.90;;;;;;5027661;28;20251;-58
2021/09/12 02:41:38;;;;;;;28.37;11.00;;;14.10;99.90;;;;;;5027031;28;20187;-59
2021/09/12 02:44:05;;;;;;;17.37;10.30;;;14.10;99.90;;;;;;5027357;28;20172;-58
2021/09/12 02:46:31;;;;;;;30.70;10.93;;;14.10;99.90;;;;;;5025846;28;20204;-58
2021/09/12 02:48:57;;;;;;;56.40;12.83;;;14.10;99.90;;;;;;5028511;28;20472;-57
2021/09/12 02:51:23;;;;;;;21.23;11.60;;;14.00;99.90;;;;;;5027576;28;20430;-59
2021/09/12 02:53:49;;;;;;;27.10;11.40;;;14.00;99.90;;;;;;5026958;28;20508;-57
2021/09/12 02:56:15;;;;;;;27.07;12.47;;;14.00;99.90;;;;;;5025640;28;20454;-59
2021/09/12 02:58:41;;;;;;;35.20;11.30;;;14.00;99.90;;;;;;5024636;28;20183;-58
2021/09/12 03:01:06;;;;;;;41.50;11.30;;;14.00;99.90;;;;;;5026534;28;20174;-59
2021/09/12 03:03:32;;;;;;;24.77;10.50;;;14.00;99.90;;;;;;5027351;28;20267;-59
2021/09/12 03:05:58;;;;;;;19.03;10.80;;;14.00;99.90;;;;;;5027554;28;20313;-58
2021/09/12 03:08:24;;;;;;;26.10;9.90;;;14.00;99.90;;;;;;5028413;28;20199;-59
2021/09/12 03:10:49;;;;;;;76.17;12.70;;;14.00;99.90;;;;;;5026355;28;20458;-58
2021/09/12 03:13:15;;;;;;;124.13;14.20;;;14.00;99.90;;;;;;5027066;28;20250;-59
2021/09/12 03:15:41;;;;;;;35.80;11.17;;;14.00;99.90;;;;;;5026798;28;20198;-58
2021/09/12 03:18:07;;;;;;;62.40;9.73;;;14.00;99.90;;;;;;5024105;28;20187;-59
2021/09/12 03:20:32;;;;;;;31.90;8.90;;;13.90;99.90;;;;;;5021698;28;20193;-59
2021/09/12 03:22:58;;;;;;;40.33;8.77;;;13.90;99.90;;;;;;5027022;28;20645;-59
2021/09/12 03:25:24;;;;;;;56.67;10.10;;;13.90;99.90;;;;;;5026059;28;20203;-58
2021/09/12 03:27:52;;;;;;;26.03;10.93;;;13.90;99.90;;;;;;5024634;28;20188;-59
2021/09/12 03:30:18;;;;;;;81.67;11.83;;;13.90;99.90;;;;;;5026301;28;20203;-58
2021/09/12 03:32:44;;;;;;;38.10;10.70;;;13.80;99.90;;;;;;5014715;28;20484;-58
2021/09/12 03:35:09;;;;;;;28.07;11.63;;;13.80;99.90;;;;;;5028507;28;20434;-58
2021/09/12 03:37:35;;;;;;;18.20;10.47;;;13.70;99.90;;;;;;5027729;28;20629;-59
2021/09/12 03:40:01;;;;;;;31.17;14.07;;;13.70;99.90;;;;;;5025521;28;20240;-59
2021/09/12 03:42:26;;;;;;;40.80;18.37;;;13.70;99.90;;;;;;5027142;28;20194;-58
2021/09/12 03:44:52;;;;;;;40.30;17.70;;;13.70;99.90;;;;;;5026739;28;20187;-58
2021/09/12 03:47:18;;;;;;;35.50;17.50;;;13.70;99.90;;;;;;5029089;28;20202;-60
2021/09/12 03:49:44;;;;;;;34.23;16.27;;;13.70;99.90;;;;;;5028298;28;20195;-59
2021/09/12 03:52:09;;;;;;;77.90;14.80;;;13.60;99.90;;;;;;5028626;28;20187;-59
2021/09/12 03:54:35;;;;;;;21.57;11.00;;;13.60;99.90;;;;;;5022888;28;20175;-58
2021/09/12 03:57:01;;;;;;;21.17;9.50;;;13.60;99.90;;;;;;5028256;28;20325;-58
2021/09/12 03:59:26;;;;;;;14.90;8.03;;;13.60;99.90;;;;;;5026984;28;20180;-58
2021/09/12 04:01:52;;;;;;;14.37;7.57;;;13.60;99.90;;;;;;5031521;28;20183;-59
2021/09/12 04:04:18;;;;;;;10.00;7.60;;;13.60;99.90;;;;;;5034364;28;20660;-57
2021/09/12 04:06:43;;;;;;;20.60;8.10;;;13.60;99.90;;;;;;5023517;28;20294;-58
2021/09/12 04:09:09;;;;;;;12.30;5.67;;;13.60;99.90;;;;;;5028774;28;20207;-58
2021/09/12 04:11:34;;;;;;;9.70;5.70;;;13.60;99.90;;;;;;5041220;28;20168;-59
2021/09/12 04:14:00;;;;;;;8.70;6.13;;;13.60;99.90;;;;;;5038779;28;20190;-58
2021/09/12 04:16:26;;;;;;;12.67;6.07;;;13.50;99.90;;;;;;5029969;28;20191;-59
2021/09/12 04:18:51;;;;;;;24.03;5.67;;;13.50;99.90;;;;;;5030479;28;20637;-61
2021/09/12 04:21:17;;;;;;;21.00;5.60;;;13.50;99.90;;;;;;5028521;28;20657;-59
2021/09/12 04:23:43;;;;;;;13.53;5.50;;;13.50;99.90;;;;;;5030225;28;20171;-58
2021/09/12 04:26:08;;;;;;;8.37;5.37;;;13.40;99.90;;;;;;5029281;28;20235;-58
2021/09/12 04:28:34;;;;;;;25.33;5.90;;;13.40;99.90;;;;;;5027872;28;20207;-59
2021/09/12 04:31:00;;;;;;;19.77;5.97;;;13.40;99.90;;;;;;5030348;28;20200;-59
2021/09/12 04:33:25;;;;;;;8.07;4.50;;;13.40;99.90;;;;;;5028823;28;20180;-59
2021/09/12 04:35:51;;;;;;;4.97;4.30;;;13.40;99.90;;;;;;5028916;28;20197;-59
2021/09/12 04:38:17;;;;;;;7.67;4.90;;;13.30;99.90;;;;;;5029552;28;20653;-58
2021/09/12 04:40:42;;;;;;;14.20;4.70;;;13.30;99.90;;;;;;5010960;28;20176;-59
2021/09/12 04:43:08;;;;;;;18.20;5.30;;;13.30;99.90;;;;;;5041951;28;20184;-59
2021/09/12 04:45:34;;;;;;;26.57;5.30;;;13.30;99.90;;;;;;5042545;28;20459;-59
2021/09/12 04:47:59;;;;;;;26.10;5.73;;;13.20;99.90;;;;;;5034599;28;20663;-58
2021/09/12 04:50:25;;;;;;;11.23;5.03;;;13.20;99.90;;;;;;5016307;28;20574;-59
2021/09/12 04:52:51;;;;;;;32.90;5.23;;;13.10;99.90;;;;;;5015987;28;20186;-59
2021/09/12 04:55:16;;;;;;;7.20;5.10;;;13.00;99.90;;;;;;5035786;28;20176;-59
2021/09/12 04:57:44;;;;;;;8.60;4.70;;;13.00;99.90;;;;;;5026795;28;20585;-58
2021/09/12 05:00:10;;;;;;;10.10;5.63;;;13.00;99.90;;;;;;5008357;28;20176;-58
2021/09/12 05:02:36;;;;;;;11.93;6.20;;;13.00;99.90;;;;;;5024777;28;20488;-58
2021/09/12 05:05:01;;;;;;;56.20;7.67;;;13.00;99.90;;;;;;5030288;28;20927;-58
2021/09/12 05:07:27;;;;;;;7.80;5.13;;;13.00;99.90;;;;;;5033519;28;20663;-58
2021/09/12 05:09:52;;;;;;;8.80;5.00;;;13.00;99.90;;;;;;5022906;28;20196;-58
2021/09/12 05:12:18;;;;;;;7.77;4.57;;;13.00;99.90;;;;;;5011475;28;20533;-58
2021/09/12 05:14:44;;;;;;;5.00;4.00;;;13.10;99.90;;;;;;5028385;28;20216;-58
2021/09/12 05:17:09;;;;;;;8.90;5.07;;;13.10;99.90;;;;;;5027678;28;20736;-58
2021/09/12 05:19:35;;;;;;;13.70;4.90;;;13.10;99.90;;;;;;5026947;28;20164;-58
2021/09/12 05:22:00;;;;;;;6.40;4.13;;;13.10;99.90;;;;;;5028668;28;20192;-58
2021/09/12 05:24:26;;;;;;;5.47;4.60;;;13.10;99.90;;;;;;5028822;28;20372;-58
2021/09/12 05:26:52;;;;;;;14.43;4.40;;;13.10;99.90;;;;;;5027844;28;20207;-57
2021/09/12 05:29:18;;;;;;;47.67;5.23;;;13.10;99.90;;;;;;5026845;28;20197;-58
2021/09/12 05:31:44;;;;;;;7.50;4.50;;;13.10;99.90;;;;;;5050334;28;20258;-60
2021/09/12 05:34:09;;;;;;;5.63;4.50;;;13.00;99.90;;;;;;5050732;28;20433;-59
2021/09/12 05:36:35;;;;;;;5.27;4.50;;;13.00;99.90;;;;;;5039639;28;20203;-57
2021/09/12 05:39:01;;;;;;;19.83;4.60;;;13.00;99.90;;;;;;5028017;28;20172;-59
2021/09/12 05:41:26;;;;;;;18.20;4.43;;;13.10;99.90;;;;;;5028721;28;20168;-59
2021/09/12 05:43:52;;;;;;;8.77;4.97;;;13.00;99.90;;;;;;5029342;28;20183;-58
2021/09/12 05:46:17;;;;;;;17.27;4.97;;;13.00;99.90;;;;;;5029106;28;20680;-58
2021/09/12 05:48:43;;;;;;;20.97;4.70;;;13.00;99.90;;;;;;5027045;28;20194;-58
2021/09/12 05:51:09;;;;;;;5.73;4.10;;;13.00;99.90;;;;;;5026092;28;20176;-59
2021/09/12 05:53:34;;;;;;;12.40;3.97;;;13.00;99.90;;;;;;5028612;28;20186;-58
2021/09/12 05:56:00;;;;;;;11.17;3.40;;;13.00;99.90;;;;;;5026143;28;20253;-59
2021/09/12 05:58:25;;;;;;;19.93;4.10;;;13.00;99.90;;;;;;5027694;28;20652;-58
2021/09/12 06:00:51;;;;;;;8.60;4.50;;;12.90;99.90;;;;;;5022775;28;20175;-59
2021/09/12 06:03:17;;;;;;;21.73;4.50;;;12.90;99.90;;;;;;5028111;28;20746;-58
2021/09/12 06:05:43;;;;;;;10.43;4.00;;;12.90;99.90;;;;;;5021303;28;20222;-58
2021/09/12 06:08:08;;;;;;;9.23;5.47;;;12.90;99.90;;;;;;5024795;28;20181;-58
2021/09/12 06:10:34;;;;;;;47.07;8.00;;;12.90;99.90;;;;;;5027618;28;20203;-58
2021/09/12 06:13:00;;;;;;;17.03;6.73;;;13.00;99.90;;;;;;5026755;28;20180;-59
2021/09/12 06:15:25;;;;;;;27.60;7.40;;;13.00;99.90;;;;;;5025753;28;20199;-58
2021/09/12 06:17:51;;;;;;;21.00;8.67;;;13.00;99.90;;;;;;5026395;28;20260;-58
2021/09/12 06:20:19;;;;;;;13.00;7.83;;;13.10;99.90;;;;;;5028452;28;20180;-58
2021/09/12 06:22:47;;;;;;;16.27;8.20;;;13.10;99.90;;;;;;5034134;28;20206;-58
2021/09/12 06:25:13;;;;;;;14.10;8.70;;;13.10;99.90;;;;;;5027133;28;20438;-58
2021/09/12 06:27:39;;;;;;;16.00;8.63;;;13.20;99.90;;;;;;5028633;28;20426;-58
2021/09/12 06:30:08;;;;;;;15.53;9.30;;;13.20;99.90;;;;;;5025133;28;20462;-58
2021/09/12 06:32:33;;;;;;;19.43;9.30;;;13.20;99.90;;;;;;5024308;28;20927;-59
2021/09/12 06:34:59;;;;;;;15.23;9.33;;;13.30;99.90;;;;;;5026789;28;20458;-58
2021/09/12 06:37:24;;;;;;;14.40;8.67;;;13.30;99.90;;;;;;5026378;28;20209;-59
2021/09/12 06:39:50;;;;;;;20.00;8.47;;;13.30;99.90;;;;;;5008378;28;20210;-59
2021/09/12 06:42:16;;;;;;;18.53;10.30;;;13.30;99.90;;;;;;5006131;28;20180;-59
2021/09/12 06:44:44;;;;;;;20.20;9.90;;;13.30;99.90;;;;;;5020122;28;20194;-58
2021/09/12 06:47:09;;;;;;;15.03;9.70;;;13.30;99.90;;;;;;5020186;28;20200;-59
2021/09/12 06:49:35;;;;;;;16.10;10.03;;;13.30;99.90;;;;;;5020432;28;20846;-58
2021/09/12 06:52:01;;;;;;;19.33;9.70;;;13.40;99.90;;;;;;5018903;28;20274;-57
2021/09/12 06:54:27;;;;;;;17.00;10.17;;;13.40;99.90;;;;;;5011516;28;20177;-58
2021/09/12 06:56:52;;;;;;;49.77;13.40;;;13.40;99.90;;;;;;5014784;28;20200;-61
2021/09/12 06:59:18;;;;;;;31.80;11.70;;;13.40;99.90;;;;;;5022221;28;21064;-59
2021/09/12 07:01:44;;;;;;;17.17;9.43;;;13.40;99.90;;;;;;5020894;28;20176;-58
2021/09/12 07:04:09;;;;;;;20.53;9.40;;;13.40;99.90;;;;;;5025889;28;20225;-58
2021/09/12 07:06:35;;;;;;;18.80;10.63;;;13.40;99.90;;;;;;5025188;28;20218;-60
2021/09/12 07:09:03;;;;;;;20.87;11.30;;;13.50;99.90;;;;;;5025245;28;20200;-59
2021/09/12 07:11:29;;;;;;;44.37;12.27;;;13.50;99.90;;;;;;5020825;28;20173;-58
2021/09/12 07:13:55;;;;;;;21.80;12.23;;;13.60;99.90;;;;;;5022136;28;20434;-58
2021/09/12 07:16:21;;;;;;;24.23;12.43;;;13.60;99.90;;;;;;5022717;28;20458;-58
2021/09/12 07:18:46;;;;;;;23.03;12.63;;;13.60;99.90;;;;;;5013917;28;20203;-59
2021/09/12 07:21:12;;;;;;;25.37;14.30;;;13.60;99.90;;;;;;5009181;28;20237;-58
2021/09/12 07:23:38;;;;;;;26.63;13.73;;;13.60;99.90;;;;;;5021775;28;20183;-59
2021/09/12 07:26:04;;;;;;;33.40;15.50;;;13.70;99.90;;;;;;5027967;28;20270;-59
2021/09/12 07:28:30;;;;;;;28.47;12.23;;;13.70;99.90;;;;;;5029123;28;20396;-59
2021/09/12 07:30:55;;;;;;;21.00;11.43;;;13.80;99.90;;;;;;5024878;28;20461;-59
2021/09/12 07:33:21;;;;;;;25.80;13.77;;;13.80;99.90;;;;;;5020981;28;20268;-59
2021/09/12 07:35:46;;;;;;;25.67;12.53;;;13.80;99.90;;;;;;5022105;28;20366;-57
2021/09/12 07:38:12;;;;;;;28.03;13.00;;;13.90;99.90;;;;;;5027908;28;20192;-57
2021/09/12 07:40:38;;;;;;;30.53;13.37;;;14.00;99.90;;;;;;5023740;28;20644;-57
2021/09/12 07:43:03;;;;;;;23.20;13.10;;;14.00;99.90;;;;;;5026308;28;20675;-57
2021/09/12 07:45:29;;;;;;;24.30;12.40;;;14.00;99.90;;;;;;5027711;28;20297;-59
2021/09/12 07:47:58;;;;;;;22.33;13.10;;;14.10;99.90;;;;;;5027131;28;20230;-59
2021/09/12 07:50:24;;;;;;;19.53;11.90;;;14.30;99.90;;;;;;5029395;28;20203;-61
2021/09/12 07:52:50;;;;;;;13.07;9.37;;;14.40;99.90;;;;;;5027470;28;20442;-59
2021/09/12 07:55:16;;;;;;;13.13;8.60;;;14.50;99.90;;;;;;5025805;28;20176;-60
2021/09/12 07:57:42;;;;;;;16.00;8.67;;;14.60;99.90;;;;;;5026147;28;20437;-60
2021/09/12 08:00:10;;;;;;;12.03;7.97;;;14.80;99.90;;;;;;5008761;28;20168;-60
2021/09/12 08:02:35;;;;;;;15.43;10.87;;;14.80;99.90;;;;;;5028477;28;20175;-58
2021/09/12 08:05:01;;;;;;;13.97;9.60;;;14.90;99.90;;;;;;5023470;28;20438;-63
2021/09/12 08:07:27;;;;;;;15.80;10.33;;;15.00;99.90;;;;;;5025694;28;20184;-62
2021/09/12 08:09:53;;;;;;;13.23;8.90;;;15.10;99.90;;;;;;5041819;28;20231;-59
2021/09/12 08:12:18;;;;;;;11.30;8.23;;;15.20;99.90;;;;;;5046115;28;20237;-58
2021/09/12 08:14:44;;;;;;;13.20;8.93;;;15.20;99.90;;;;;;5036507;28;20183;-59
2021/09/12 08:17:10;;;;;;;12.60;9.53;;;15.30;99.90;;;;;;5024087;28;20211;-60
2021/09/12 08:19:36;;;;;;;10.07;7.93;;;15.40;99.90;;;;;;5005934;28;20179;-60
2021/09/12 08:22:02;;;;;;;10.70;7.87;;;15.50;99.90;;;;;;5005877;28;20219;-60
2021/09/12 08:24:27;;;;;;;13.03;8.17;;;15.50;99.90;;;;;;5021852;28;20168;-59
2021/09/12 08:26:54;;;;;;;16.37;8.33;;;15.60;99.90;;;;;;5023123;22;20525;-62
2021/09/12 08:29:19;;;;;;;10.53;7.40;;;15.70;99.90;;;;;;5004891;28;20256;-60
2021/09/12 08:31:45;;;;;;;8.73;6.40;;;15.70;99.90;;;;;;5000001;28;20961;-61
2021/09/12 08:36:56;;;;;;;6.70;6.00;;;15.90;99.90;;;;;;5003841;28;20235;-61
2021/09/12 08:39:22;;;;;;;13.63;6.73;;;16.00;99.90;;;;;;5002272;28;20463;-61
2021/09/12 08:41:47;;;;;;;8.00;6.60;;;16.10;99.90;;;;;;5003570;28;20176;-61
2021/09/12 08:44:20;;;;;;;8.63;5.73;;;16.30;99.90;;;;;;5001771;28;20230;-59
2021/09/12 08:46:47;;;;;;;8.67;6.77;;;16.40;99.90;;;;;;5001357;28;20211;-61
2021/09/12 08:49:14;;;;;;;5.50;5.00;;;16.50;99.90;;;;;;4985635;28;20455;-59
2021/09/12 08:51:39;;;;;;;8.00;5.43;;;16.60;99.90;;;;;;5005579;28;21044;-58
2021/09/12 08:54:05;;;;;;;10.20;6.87;;;16.70;99.90;;;;;;5001010;28;20431;-60
2021/09/12 08:56:31;;;;;;;7.37;5.80;;;16.90;99.90;;;;;;5007398;28;20436;-61
2021/09/12 08:58:57;;;;;;;9.27;6.90;;;16.90;99.90;;;;;;5006629;28;20173;-59
2021/09/12 09:01:33;;;;;;;7.60;5.53;;;17.00;99.90;;;;;;5003000;28;20224;-61
2021/09/12 09:04:01;;;;;;;7.80;4.93;;;17.20;99.90;;;;;;5005917;28;20427;-63
2021/09/12 09:06:33;;;;;;;7.13;5.27;;;17.30;99.90;;;;;;4987885;28;20822;-59
2021/09/12 09:09:02;;;;;;;7.57;5.13;;;17.50;99.90;;;;;;5005393;28;20417;-60
2021/09/12 09:11:32;;;;;;;6.53;5.83;;;17.70;99.90;;;;;;4988704;28;20461;-59
2021/09/12 09:14:20;;;;;;;7.67;5.40;;;17.80;99.90;;;;;;4988867;28;20427;-60
2021/09/12 09:16:47;;;;;;;6.00;5.30;;;17.90;99.90;;;;;;4985838;28;20502;-59
2021/09/12 09:19:14;;;;;;;4.83;3.43;;;18.00;99.90;;;;;;5001959;28;20516;-60
2021/09/12 09:21:42;;;;;;;4.07;3.67;;;18.10;99.90;;;;;;5005843;28;20427;-60
2021/09/12 09:24:36;;;;;;;2.60;2.40;;;18.10;99.90;;;;;;5003236;28;20454;-60
2021/09/12 09:27:04;;;;;;;3.00;2.30;;;18.30;99.90;;;;;;4985800;28;20463;-61
2021/09/12 09:29:31;;;;;;;6.03;3.30;;;18.50;99.90;;;;;;4982560;28;20586;-61
2021/09/12 09:32:06;;;;;;;5.97;2.87;;;18.70;99.90;;;;;;5001325;28;20441;-61
2021/09/12 09:34:33;;;;;;;6.37;3.13;;;18.90;99.90;;;;;;4999050;28;20415;-64
2021/09/12 09:37:14;;;;;;;2.60;2.20;;;19.10;99.90;;;;;;4998796;28;20453;-60
2021/09/12 09:39:45;;;;;;;3.70;2.13;;;19.30;99.90;;;;;;5001073;28;20419;-59
2021/09/12 09:42:43;;;;;;;2.57;2.37;;;19.40;99.70;;;;;;5000285;28;20424;-59
2021/09/12 09:45:12;;;;;;;2.47;2.03;;;19.60;99.30;;;;;;5002931;28;20939;-61
2021/09/12 09:47:40;;;;;;;2.57;2.20;;;19.70;98.70;;;;;;5003488;28;20475;-60
2021/09/12 09:50:14;;;;;;;2.40;2.20;;;19.80;98.00;;;;;;5002520;28;20534;-62
2021/09/12 09:52:54;;;;;;;2.37;2.17;;;19.90;97.00;;;;;;5000053;28;20423;-61
2021/09/12 09:55:22;;;;;;;2.43;2.23;;;20.00;97.20;;;;;;5002002;28;20435;-63
2021/09/12 09:57:49;;;;;;;6.23;2.50;;;20.00;91.20;;;;;;4997974;28;20554;-65
2021/09/12 10:00:17;;;;;;;2.40;2.20;;;19.80;90.30;;;;;;5002112;28;20522;-63
2021/09/12 10:02:43;;;;;;;2.40;2.20;;;19.80;91.30;;;;;;4997319;28;21242;-59
2021/09/12 10:05:12;;;;;;;2.40;2.20;;;19.90;93.00;;;;;;4995565;28;20793;-59
2021/09/12 10:07:40;;;;;;;2.27;2.07;;;20.10;94.10;;;;;;5001185;28;20490;-60
2021/09/12 10:10:08;;;;;;;2.70;2.27;;;20.20;93.90;;;;;;5001130;28;20978;-58
2021/09/12 10:12:38;;;;;;;2.60;2.40;;;20.40;93.90;;;;;;5009516;28;20431;-61
2021/09/12 10:15:12;;;;;;;2.40;2.20;;;20.60;92.80;;;;;;4994288;28;20491;-61
2021/09/12 10:17:42;;;;;;;2.77;2.30;;;20.70;90.30;;;;;;4986846;28;20451;-59
2021/09/12 10:20:14;;;;;;;4.17;2.20;;;20.80;86.20;;;;;;4981908;28;20667;-60
2021/09/12 10:22:52;;;;;;;2.60;2.20;;;20.80;90.60;;;;;;4990958;28;20745;-59
2021/09/12 10:25:20;;;;;;;2.80;2.50;;;21.00;91.40;;;;;;4977101;28;20460;-60
2021/09/12 10:28:04;;;;;;;7.07;2.40;;;21.10;90.30;;;;;;4994271;28;20959;-62
2021/09/12 10:30:42;;;;;;;1.93;1.83;;;21.20;77.50;;;;;;4999092;28;20815;-59
2021/09/12 10:33:12;;;;;;;3.43;1.83;;;21.30;77.40;;;;;;5005477;28;20415;-59
2021/09/12 10:35:50;;;;;;;3.17;1.97;;;21.30;81.40;;;;;;4997342;28;20933;-58
2021/09/12 10:38:26;;;;;;;5.00;2.27;;;21.40;80.00;;;;;;4978556;28;20775;-59
2021/09/12 10:40:53;;;;;;;2.80;2.60;;;21.60;83.00;;;;;;5008884;28;20515;-57
2021/09/12 10:43:25;;;;;;;2.37;2.17;;;21.70;84.40;;;;;;5008400;28;20473;-60
2021/09/12 10:46:08;;;;;;;3.63;2.40;;;21.80;76.00;;;;;;4979291;28;20447;-59
2021/09/12 10:48:44;;;;;;;5.10;2.00;;;21.90;73.20;;;;;;4991097;28;20958;-60
2021/09/12 10:51:18;;;;;;;2.33;2.13;;;21.90;74.70;;;;;;5001026;28;20470;-60
2021/09/12 10:53:44;;;;;;;2.57;2.20;;;22.00;78.90;;;;;;4984491;28;20424;-60
2021/09/12 10:56:36;;;;;;;4.70;3.00;;;22.20;78.80;;;;;;4975711;28;20440;-60
2021/09/12 10:59:04;;;;;;;2.90;2.33;;;22.30;74.90;;;;;;5004858;28;20283;-62
2021/09/12 11:01:36;;;;;;;2.10;1.90;;;22.40;74.00;;;;;;4988249;28;20424;-61
2021/09/12 11:04:03;;;;;;;2.43;1.70;;;22.60;75.90;;;;;;4993192;28;20530;-60
2021/09/12 11:06:31;;;;;;;2.73;1.90;;;22.70;71.80;;;;;;5012823;28;20462;-60
2021/09/12 11:08:57;;;;;;;2.13;1.90;;;22.80;68.30;;;;;;4994894;28;20434;-60
2021/09/12 11:11:27;;;;;;;2.70;1.97;;;22.90;68.10;;;;;;5005345;28;20511;-60
2021/09/12 11:13:54;;;;;;;3.20;1.87;;;23.00;71.10;;;;;;4994529;28;20406;-59
2021/09/12 11:16:22;;;;;;;2.13;2.00;;;23.00;63.20;;;;;;4994048;28;20435;-61
2021/09/12 11:18:59;;;;;;;2.47;2.00;;;23.10;64.00;;;;;;4993503;28;20772;-59
2021/09/12 11:21:36;;;;;;;2.80;2.43;;;23.30;67.20;;;;;;4991240;28;20693;-60
2021/09/12 11:24:05;;;;;;;4.00;2.37;;;23.50;68.10;;;;;;5010587;28;20469;-59
2021/09/12 11:26:50;;;;;;;2.33;2.13;;;23.70;66.00;;;;;;4993743;28;20459;-61
2021/09/12 11:29:27;;;;;;;2.53;2.10;;;23.90;64.60;;;;;;4990401;28;20517;-59
2021/09/12 11:32:05;;;;;;;4.00;2.40;;;24.00;64.20;;;;;;4990905;28;20787;-60
2021/09/12 11:34:32;;;;;;;2.30;2.10;;;24.20;64.40;;;;;;5011912;28;20413;-61
2021/09/12 11:37:10;;;;;;;2.20;2.00;;;24.40;63.90;;;;;;4993449;28;20495;-60
2021/09/12 11:39:43;;;;;;;1.90;1.73;;;24.40;60.10;;;;;;4990454;28;20404;-60
2021/09/12 11:42:11;;;;;;;2.40;1.90;;;24.50;59.60;;;;;;4989325;28;20474;-60
2021/09/12 11:44:49;;;;;;;3.90;2.00;;;24.60;57.60;;;;;;5013404;28;20476;-60
2021/09/12 11:47:17;;;;;;;2.30;2.10;;;24.60;58.40;;;;;;4979242;28;20455;-60
2021/09/12 11:49:44;;;;;;;2.20;2.00;;;24.80;60.60;;;;;;5005882;28;20457;-60
2021/09/12 11:52:10;;;;;;;2.43;2.23;;;24.90;58.70;;;;;;4988173;28;20426;-60
2021/09/12 11:54:37;;;;;;;2.97;2.00;;;25.10;57.90;;;;;;5003537;28;20788;-60
2021/09/12 11:57:07;;;;;;;2.33;2.17;;;25.10;58.30;;;;;;4998156;28;20238;-60
2021/09/12 11:59:40;;;;;;;2.20;1.97;;;25.40;58.40;;;;;;4997829;28;20462;-60
2021/09/12 12:02:13;;;;;;;3.00;2.00;;;25.70;58.30;;;;;;4978662;28;20431;-59
2021/09/12 12:04:40;;;;;;;2.27;2.07;;;25.90;56.90;;;;;;4989824;28;20631;-59
2021/09/12 12:07:06;;;;;;;2.60;2.40;;;25.60;54.80;;;;;;4989768;28;20424;-60
2021/09/12 12:09:42;;;;;;;2.00;1.80;;;25.50;56.50;;;;;;5001461;28;20990;-60
2021/09/12 12:12:19;;;;;;;2.40;2.20;;;25.70;57.60;;;;;;4986363;28;20986;-61
2021/09/12 12:14:49;;;;;;;2.43;2.23;;;25.80;56.90;;;;;;5000404;28;20415;-58
2021/09/12 12:17:20;;;;;;;5.77;2.50;;;25.60;56.20;;;;;;5010173;28;20436;-60
2021/09/12 12:19:47;;;;;;;2.60;2.20;;;25.10;57.00;;;;;;4992130;28;20415;-60
2021/09/12 12:22:13;;;;;;;2.17;1.97;;;24.70;58.10;;;;;;4978183;28;20583;-60
2021/09/12 12:24:51;;;;;;;2.03;1.93;;;24.20;59.20;;;;;;4980920;28;20419;-60
2021/09/12 12:27:18;;;;;;;3.13;1.93;;;23.90;59.70;;;;;;4992641;28;20467;-61
2021/09/12 12:29:57;;;;;;;2.97;2.43;;;23.50;59.80;;;;;;4990697;28;20490;-59
2021/09/12 12:32:24;;;;;;;2.33;2.13;;;23.20;61.60;;;;;;4999886;28;20431;-60
2021/09/12 12:34:52;;;;;;;4.87;2.30;;;23.10;62.80;;;;;;4986528;28;20417;-60
2021/09/12 12:37:33;;;;;;;2.90;2.17;;;22.90;65.40;;;;;;4992247;28;20443;-60
2021/09/12 12:40:01;;;;;;;3.20;2.33;;;22.90;66.40;;;;;;4991665;28;20438;-59
2021/09/12 12:42:43;;;;;;;3.13;2.53;;;22.80;68.80;;;;;;4989505;28;20428;-61